sensor_id;sensor_type;location;lat;lon;timestamp;P1;durP1;ratioP1;P2;durP2;ratioP2
43154;SDS011;34212;51.018;13.586;2024-02-21T00:00:31;12.73;;;3.28;;
43154;SDS011;34212;51.018;13.586;2024-02-21T00:05:33;13.30;;;3.40;;
43154;SDS011;34212;51.018;13.586;2024-02-21T00:10:35;11.65;;;3.50;;
43154;SDS011;34212;51.018;13.586;2024-02-21T00:15:37;12.30;;;3.97;;
43154;SDS011;34212;51.018;13.586;2024-02-21T00:20:38;14.07;;;3.90;;
43154;SDS011;34212;51.018;13.586;2024-02-21T00:25:40;12.45;;;3.50;;
43154;SDS011;34212;51.018;13.586;2024-02-21T00:30:41;14.65;;;3.45;;
43154;SDS011;34212;51.018;13.586;2024-02-21T00:35:43;12.82;;;3.53;;
43154;SDS011;34212;51.018;13.586;2024-02-21T00:40:45;13.52;;;4.25;;
43154;SDS011;34212;51.018;13.586;2024-02-21T00:50:49;13.98;;;3.65;;
43154;SDS011;34212;51.018;13.586;2024-02-21T00:55:51;9.88;;;3.50;;
43154;SDS011;34212;51.018;13.586;2024-02-21T01:00:52;11.50;;;3.45;;
43154;SDS011;34212;51.018;13.586;2024-02-21T01:05:54;10.95;;;3.47;;
43154;SDS011;34212;51.018;13.586;2024-02-21T01:10:56;15.90;;;3.50;;
43154;SDS011;34212;51.018;13.586;2024-02-21T01:15:57;7.35;;;3.65;;
43154;SDS011;34212;51.018;13.586;2024-02-21T01:20:59;11.82;;;4.20;;
43154;SDS011;34212;51.018;13.586;2024-02-21T01:26:01;11.68;;;4.13;;
43154;SDS011;34212;51.018;13.586;2024-02-21T01:31:02;7.90;;;3.45;;
43154;SDS011;34212;51.018;13.586;2024-02-21T01:36:05;15.50;;;3.40;;
43154;SDS011;34212;51.018;13.586;2024-02-21T01:41:10;12.70;;;3.53;;
43154;SDS011;34212;51.018;13.586;2024-02-21T01:46:12;11.88;;;3.55;;
43154;SDS011;34212;51.018;13.586;2024-02-21T01:51:13;13.75;;;3.63;;
43154;SDS011;34212;51.018;13.586;2024-02-21T01:56:16;12.88;;;3.58;;
43154;SDS011;34212;51.018;13.586;2024-02-21T02:01:18;7.38;;;3.08;;
43154;SDS011;34212;51.018;13.586;2024-02-21T02:06:22;13.77;;;3.95;;
43154;SDS011;34212;51.018;13.586;2024-02-21T02:11:24;12.38;;;3.55;;
43154;SDS011;34212;51.018;13.586;2024-02-21T02:16:26;10.50;;;3.40;;
43154;SDS011;34212;51.018;13.586;2024-02-21T02:21:32;10.45;;;2.65;;
43154;SDS011;34212;51.018;13.586;2024-02-21T02:26:36;10.82;;;3.55;;
43154;SDS011;34212;51.018;13.586;2024-02-21T02:31:37;12.23;;;3.63;;
43154;SDS011;34212;51.018;13.586;2024-02-21T02:36:39;12.40;;;3.67;;
43154;SDS011;34212;51.018;13.586;2024-02-21T02:41:41;12.80;;;3.40;;
43154;SDS011;34212;51.018;13.586;2024-02-21T02:46:42;10.13;;;3.55;;
43154;SDS011;34212;51.018;13.586;2024-02-21T02:51:44;11.38;;;4.63;;
43154;SDS011;34212;51.018;13.586;2024-02-21T02:56:46;13.63;;;4.65;;
43154;SDS011;34212;51.018;13.586;2024-02-21T03:01:48;8.98;;;3.45;;
43154;SDS011;34212;51.018;13.586;2024-02-21T03:06:49;12.30;;;4.07;;
43154;SDS011;34212;51.018;13.586;2024-02-21T03:11:52;17.08;;;3.80;;
43154;SDS011;34212;51.018;13.586;2024-02-21T03:16:58;10.88;;;3.38;;
43154;SDS011;34212;51.018;13.586;2024-02-21T03:22:00;10.40;;;3.00;;
43154;SDS011;34212;51.018;13.586;2024-02-21T03:27:01;10.75;;;3.42;;
43154;SDS011;34212;51.018;13.586;2024-02-21T03:32:03;11.10;;;3.43;;
43154;SDS011;34212;51.018;13.586;2024-02-21T03:37:05;12.38;;;3.75;;
43154;SDS011;34212;51.018;13.586;2024-02-21T03:42:07;14.00;;;4.10;;
43154;SDS011;34212;51.018;13.586;2024-02-21T03:47:08;12.65;;;3.85;;
43154;SDS011;34212;51.018;13.586;2024-02-21T03:52:12;10.63;;;3.83;;
43154;SDS011;34212;51.018;13.586;2024-02-21T03:57:13;14.65;;;4.10;;
43154;SDS011;34212;51.018;13.586;2024-02-21T04:02:15;9.82;;;3.60;;
43154;SDS011;34212;51.018;13.586;2024-02-21T04:07:18;11.13;;;3.60;;
43154;SDS011;34212;51.018;13.586;2024-02-21T04:12:20;10.23;;;3.40;;
43154;SDS011;34212;51.018;13.586;2024-02-21T04:17:22;11.73;;;3.40;;
43154;SDS011;34212;51.018;13.586;2024-02-21T04:22:23;11.90;;;3.97;;
43154;SDS011;34212;51.018;13.586;2024-02-21T04:27:25;13.43;;;3.83;;
43154;SDS011;34212;51.018;13.586;2024-02-21T04:32:27;9.57;;;3.17;;
43154;SDS011;34212;51.018;13.586;2024-02-21T04:37:29;10.55;;;3.80;;
43154;SDS011;34212;51.018;13.586;2024-02-21T04:42:32;11.55;;;4.28;;
43154;SDS011;34212;51.018;13.586;2024-02-21T04:47:33;8.32;;;3.30;;
43154;SDS011;34212;51.018;13.586;2024-02-21T04:52:35;13.03;;;3.93;;
43154;SDS011;34212;51.018;13.586;2024-02-21T04:57:37;11.88;;;4.13;;
43154;SDS011;34212;51.018;13.586;2024-02-21T05:02:39;10.30;;;3.20;;
43154;SDS011;34212;51.018;13.586;2024-02-21T05:07:40;16.40;;;4.28;;
43154;SDS011;34212;51.018;13.586;2024-02-21T05:12:42;10.45;;;4.05;;
43154;SDS011;34212;51.018;13.586;2024-02-21T05:17:44;9.88;;;3.70;;
43154;SDS011;34212;51.018;13.586;2024-02-21T05:22:45;12.70;;;4.60;;
43154;SDS011;34212;51.018;13.586;2024-02-21T05:27:47;10.40;;;3.65;;
43154;SDS011;34212;51.018;13.586;2024-02-21T05:32:49;12.03;;;3.57;;
43154;SDS011;34212;51.018;13.586;2024-02-21T05:37:51;12.52;;;3.83;;
43154;SDS011;34212;51.018;13.586;2024-02-21T05:42:54;12.00;;;3.78;;
43154;SDS011;34212;51.018;13.586;2024-02-21T05:47:55;13.40;;;3.97;;
43154;SDS011;34212;51.018;13.586;2024-02-21T05:52:58;11.20;;;4.13;;
43154;SDS011;34212;51.018;13.586;2024-02-21T05:58:00;15.32;;;3.50;;
43154;SDS011;34212;51.018;13.586;2024-02-21T06:03:01;11.82;;;3.78;;
43154;SDS011;34212;51.018;13.586;2024-02-21T06:08:03;12.45;;;4.20;;
43154;SDS011;34212;51.018;13.586;2024-02-21T06:13:05;8.48;;;3.58;;
43154;SDS011;34212;51.018;13.586;2024-02-21T06:18:07;11.65;;;3.90;;
43154;SDS011;34212;51.018;13.586;2024-02-21T06:23:09;7.13;;;2.97;;
43154;SDS011;34212;51.018;13.586;2024-02-21T06:28:11;9.25;;;3.67;;
43154;SDS011;34212;51.018;13.586;2024-02-21T06:33:12;13.70;;;4.10;;
43154;SDS011;34212;51.018;13.586;2024-02-21T06:38:14;10.93;;;3.35;;
43154;SDS011;34212;51.018;13.586;2024-02-21T06:43:17;9.18;;;3.10;;
43154;SDS011;34212;51.018;13.586;2024-02-21T06:48:21;10.27;;;3.35;;
43154;SDS011;34212;51.018;13.586;2024-02-21T06:53:23;10.23;;;3.38;;
43154;SDS011;34212;51.018;13.586;2024-02-21T06:58:24;9.18;;;3.50;;
43154;SDS011;34212;51.018;13.586;2024-02-21T07:03:26;9.55;;;3.60;;
43154;SDS011;34212;51.018;13.586;2024-02-21T07:08:27;8.35;;;3.22;;
43154;SDS011;34212;51.018;13.586;2024-02-21T07:13:29;11.25;;;4.95;;
43154;SDS011;34212;51.018;13.586;2024-02-21T07:18:31;10.40;;;3.88;;
43154;SDS011;34212;51.018;13.586;2024-02-21T07:23:33;11.50;;;3.50;;
43154;SDS011;34212;51.018;13.586;2024-02-21T07:28:35;11.32;;;3.55;;
43154;SDS011;34212;51.018;13.586;2024-02-21T07:33:36;11.10;;;3.38;;
43154;SDS011;34212;51.018;13.586;2024-02-21T07:38:38;9.88;;;3.58;;
43154;SDS011;34212;51.018;13.586;2024-02-21T07:43:40;8.38;;;3.50;;
43154;SDS011;34212;51.018;13.586;2024-02-21T07:48:41;10.68;;;3.50;;
43154;SDS011;34212;51.018;13.586;2024-02-21T07:53:43;10.82;;;3.75;;
43154;SDS011;34212;51.018;13.586;2024-02-21T08:03:47;9.52;;;3.30;;
43154;SDS011;34212;51.018;13.586;2024-02-21T08:08:49;11.70;;;3.83;;
43154;SDS011;34212;51.018;13.586;2024-02-21T08:13:51;9.75;;;3.63;;
43154;SDS011;34212;51.018;13.586;2024-02-21T08:18:53;9.80;;;4.00;;
43154;SDS011;34212;51.018;13.586;2024-02-21T08:23:54;10.90;;;3.67;;
43154;SDS011;34212;51.018;13.586;2024-02-21T08:28:56;9.73;;;3.80;;
43154;SDS011;34212;51.018;13.586;2024-02-21T08:34:02;7.63;;;3.92;;
43154;SDS011;34212;51.018;13.586;2024-02-21T08:39:05;12.07;;;3.78;;
43154;SDS011;34212;51.018;13.586;2024-02-21T08:44:07;8.13;;;3.72;;
43154;SDS011;34212;51.018;13.586;2024-02-21T08:49:09;6.93;;;4.05;;
43154;SDS011;34212;51.018;13.586;2024-02-21T08:54:12;13.10;;;4.43;;
43154;SDS011;34212;51.018;13.586;2024-02-21T08:59:13;9.73;;;3.95;;
43154;SDS011;34212;51.018;13.586;2024-02-21T09:09:18;8.52;;;3.88;;
43154;SDS011;34212;51.018;13.586;2024-02-21T09:14:19;10.25;;;3.33;;
43154;SDS011;34212;51.018;13.586;2024-02-21T09:19:21;10.60;;;4.38;;
43154;SDS011;34212;51.018;13.586;2024-02-21T09:24:23;12.03;;;3.77;;
43154;SDS011;34212;51.018;13.586;2024-02-21T09:29:25;12.70;;;3.92;;
43154;SDS011;34212;51.018;13.586;2024-02-21T09:34:28;12.13;;;4.65;;
43154;SDS011;34212;51.018;13.586;2024-02-21T09:39:31;9.40;;;4.10;;
43154;SDS011;34212;51.018;13.586;2024-02-21T09:44:36;8.43;;;3.78;;
43154;SDS011;34212;51.018;13.586;2024-02-21T09:49:39;8.52;;;4.15;;
43154;SDS011;34212;51.018;13.586;2024-02-21T09:54:42;9.35;;;4.25;;
43154;SDS011;34212;51.018;13.586;2024-02-21T09:59:46;11.80;;;3.92;;
43154;SDS011;34212;51.018;13.586;2024-02-21T10:04:47;10.88;;;4.75;;
43154;SDS011;34212;51.018;13.586;2024-02-21T10:09:49;9.75;;;3.63;;
43154;SDS011;34212;51.018;13.586;2024-02-21T10:15:04;9.63;;;3.50;;
43154;SDS011;34212;51.018;13.586;2024-02-21T10:20:09;7.20;;;3.67;;
43154;SDS011;34212;51.018;13.586;2024-02-21T10:25:12;8.73;;;3.70;;
43154;SDS011;34212;51.018;13.586;2024-02-21T10:30:14;10.70;;;3.40;;
43154;SDS011;34212;51.018;13.586;2024-02-21T10:35:24;8.47;;;3.57;;
43154;SDS011;34212;51.018;13.586;2024-02-21T10:40:29;6.67;;;3.27;;
43154;SDS011;34212;51.018;13.586;2024-02-21T10:45:35;7.78;;;3.58;;
43154;SDS011;34212;51.018;13.586;2024-02-21T10:56:08;8.75;;;3.50;;
43154;SDS011;34212;51.018;13.586;2024-02-21T11:01:17;7.60;;;3.75;;
43154;SDS011;34212;51.018;13.586;2024-02-21T11:06:20;10.05;;;3.70;;
43154;SDS011;34212;51.018;13.586;2024-02-21T11:11:23;7.43;;;4.07;;
43154;SDS011;34212;51.018;13.586;2024-02-21T11:16:39;9.75;;;4.00;;
43154;SDS011;34212;51.018;13.586;2024-02-21T11:21:42;8.25;;;3.72;;
43154;SDS011;34212;51.018;13.586;2024-02-21T11:26:43;8.63;;;3.45;;
43154;SDS011;34212;51.018;13.586;2024-02-21T11:31:50;5.97;;;3.17;;
43154;SDS011;34212;51.018;13.586;2024-02-21T11:36:52;11.65;;;3.90;;
43154;SDS011;34212;51.018;13.586;2024-02-21T11:42:06;10.15;;;4.10;;
43154;SDS011;34212;51.018;13.586;2024-02-21T11:47:13;4.78;;;3.08;;
43154;SDS011;34212;51.018;13.586;2024-02-21T11:52:16;6.72;;;3.35;;
43154;SDS011;34212;51.018;13.586;2024-02-21T11:57:20;10.18;;;3.53;;
43154;SDS011;34212;51.018;13.586;2024-02-21T12:02:22;6.80;;;3.20;;
43154;SDS011;34212;51.018;13.586;2024-02-21T12:07:23;5.80;;;3.37;;
43154;SDS011;34212;51.018;13.586;2024-02-21T12:12:26;8.93;;;3.03;;
43154;SDS011;34212;51.018;13.586;2024-02-21T12:22:30;6.40;;;3.22;;
43154;SDS011;34212;51.018;13.586;2024-02-21T12:27:34;7.40;;;3.22;;
43154;SDS011;34212;51.018;13.586;2024-02-21T12:32:36;7.13;;;2.97;;
43154;SDS011;34212;51.018;13.586;2024-02-21T12:37:38;7.90;;;3.67;;
43154;SDS011;34212;51.018;13.586;2024-02-21T12:47:42;6.28;;;3.15;;
43154;SDS011;34212;51.018;13.586;2024-02-21T12:52:44;6.93;;;2.70;;
43154;SDS011;34212;51.018;13.586;2024-02-21T12:57:46;7.27;;;2.97;;
43154;SDS011;34212;51.018;13.586;2024-02-21T13:02:47;7.50;;;3.35;;
43154;SDS011;34212;51.018;13.586;2024-02-21T13:07:49;6.03;;;2.75;;
43154;SDS011;34212;51.018;13.586;2024-02-21T13:12:50;12.85;;;3.35;;
43154;SDS011;34212;51.018;13.586;2024-02-21T13:17:52;10.43;;;3.25;;
43154;SDS011;34212;51.018;13.586;2024-02-21T13:22:54;7.50;;;3.40;;
43154;SDS011;34212;51.018;13.586;2024-02-21T13:27:55;7.78;;;2.90;;
43154;SDS011;34212;51.018;13.586;2024-02-21T13:32:57;9.55;;;3.40;;
43154;SDS011;34212;51.018;13.586;2024-02-21T13:37:59;6.30;;;2.70;;
43154;SDS011;34212;51.018;13.586;2024-02-21T13:48:03;4.82;;;2.20;;
43154;SDS011;34212;51.018;13.586;2024-02-21T13:53:07;7.47;;;2.65;;
43154;SDS011;34212;51.018;13.586;2024-02-21T13:58:10;5.07;;;2.20;;
43154;SDS011;34212;51.018;13.586;2024-02-21T14:03:12;5.67;;;1.90;;
43154;SDS011;34212;51.018;13.586;2024-02-21T14:08:14;6.37;;;2.43;;
43154;SDS011;34212;51.018;13.586;2024-02-21T14:13:16;3.58;;;1.88;;
43154;SDS011;34212;51.018;13.586;2024-02-21T14:23:20;4.93;;;2.45;;
43154;SDS011;34212;51.018;13.586;2024-02-21T14:28:22;6.50;;;2.50;;
43154;SDS011;34212;51.018;13.586;2024-02-21T14:33:24;4.80;;;2.28;;
43154;SDS011;34212;51.018;13.586;2024-02-21T14:38:26;4.25;;;2.30;;
43154;SDS011;34212;51.018;13.586;2024-02-21T14:43:28;7.85;;;2.90;;
43154;SDS011;34212;51.018;13.586;2024-02-21T14:48:30;6.63;;;2.47;;
43154;SDS011;34212;51.018;13.586;2024-02-21T14:58:34;4.60;;;2.38;;
43154;SDS011;34212;51.018;13.586;2024-02-21T15:03:36;5.30;;;2.28;;
43154;SDS011;34212;51.018;13.586;2024-02-21T15:08:38;8.00;;;4.95;;
43154;SDS011;34212;51.018;13.586;2024-02-21T15:13:39;6.13;;;2.63;;
43154;SDS011;34212;51.018;13.586;2024-02-21T15:18:41;8.18;;;2.75;;
43154;SDS011;34212;51.018;13.586;2024-02-21T15:23:42;5.28;;;2.20;;
43154;SDS011;34212;51.018;13.586;2024-02-21T15:28:45;4.38;;;2.20;;
43154;SDS011;34212;51.018;13.586;2024-02-21T15:33:46;12.55;;;6.60;;
43154;SDS011;34212;51.018;13.586;2024-02-21T15:38:48;9.00;;;4.67;;
43154;SDS011;34212;51.018;13.586;2024-02-21T15:43:50;8.50;;;3.72;;
43154;SDS011;34212;51.018;13.586;2024-02-21T15:48:52;6.10;;;2.30;;
43154;SDS011;34212;51.018;13.586;2024-02-21T15:53:56;5.70;;;2.45;;
43154;SDS011;34212;51.018;13.586;2024-02-21T15:58:58;4.33;;;1.83;;
43154;SDS011;34212;51.018;13.586;2024-02-21T16:03:59;3.28;;;1.95;;
43154;SDS011;34212;51.018;13.586;2024-02-21T16:09:01;3.00;;;1.73;;
43154;SDS011;34212;51.018;13.586;2024-02-21T16:14:06;5.35;;;1.80;;
43154;SDS011;34212;51.018;13.586;2024-02-21T16:19:08;4.17;;;1.93;;
43154;SDS011;34212;51.018;13.586;2024-02-21T16:24:10;3.53;;;1.92;;
43154;SDS011;34212;51.018;13.586;2024-02-21T16:29:12;4.70;;;1.70;;
43154;SDS011;34212;51.018;13.586;2024-02-21T16:34:15;4.25;;;1.92;;
43154;SDS011;34212;51.018;13.586;2024-02-21T16:39:18;3.20;;;1.95;;
43154;SDS011;34212;51.018;13.586;2024-02-21T16:44:19;4.57;;;2.22;;
43154;SDS011;34212;51.018;13.586;2024-02-21T16:49:23;4.50;;;1.92;;
43154;SDS011;34212;51.018;13.586;2024-02-21T16:54:24;4.10;;;2.20;;
43154;SDS011;34212;51.018;13.586;2024-02-21T16:59:29;4.20;;;2.40;;
43154;SDS011;34212;51.018;13.586;2024-02-21T17:04:30;6.50;;;3.78;;
43154;SDS011;34212;51.018;13.586;2024-02-21T17:09:32;9.07;;;3.20;;
43154;SDS011;34212;51.018;13.586;2024-02-21T17:14:34;8.77;;;2.63;;
43154;SDS011;34212;51.018;13.586;2024-02-21T17:19:36;5.17;;;2.40;;
43154;SDS011;34212;51.018;13.586;2024-02-21T17:24:38;3.87;;;2.10;;
43154;SDS011;34212;51.018;13.586;2024-02-21T17:29:41;4.60;;;2.28;;
43154;SDS011;34212;51.018;13.586;2024-02-21T17:34:43;5.18;;;2.25;;
43154;SDS011;34212;51.018;13.586;2024-02-21T17:39:44;7.40;;;2.70;;
43154;SDS011;34212;51.018;13.586;2024-02-21T17:44:46;9.02;;;4.80;;
43154;SDS011;34212;51.018;13.586;2024-02-21T17:54:51;3.60;;;2.43;;
43154;SDS011;34212;51.018;13.586;2024-02-21T17:59:53;4.65;;;2.28;;
43154;SDS011;34212;51.018;13.586;2024-02-21T18:04:55;4.63;;;2.53;;
43154;SDS011;34212;51.018;13.586;2024-02-21T18:09:56;3.40;;;2.00;;
43154;SDS011;34212;51.018;13.586;2024-02-21T18:14:58;4.57;;;2.55;;
43154;SDS011;34212;51.018;13.586;2024-02-21T18:20:01;4.72;;;2.50;;
43154;SDS011;34212;51.018;13.586;2024-02-21T18:25:05;4.60;;;2.53;;
43154;SDS011;34212;51.018;13.586;2024-02-21T18:30:10;6.35;;;2.75;;
43154;SDS011;34212;51.018;13.586;2024-02-21T18:35:12;5.70;;;2.40;;
43154;SDS011;34212;51.018;13.586;2024-02-21T18:40:16;3.70;;;2.30;;
43154;SDS011;34212;51.018;13.586;2024-02-21T18:45:18;4.05;;;2.30;;
43154;SDS011;34212;51.018;13.586;2024-02-21T18:50:20;4.57;;;2.27;;
43154;SDS011;34212;51.018;13.586;2024-02-21T18:55:22;3.70;;;2.05;;
43154;SDS011;34212;51.018;13.586;2024-02-21T19:00:24;5.22;;;2.13;;
43154;SDS011;34212;51.018;13.586;2024-02-21T19:05:27;3.10;;;2.00;;
43154;SDS011;34212;51.018;13.586;2024-02-21T19:10:28;3.08;;;1.90;;
43154;SDS011;34212;51.018;13.586;2024-02-21T19:15:31;5.17;;;2.27;;
43154;SDS011;34212;51.018;13.586;2024-02-21T19:20:33;4.00;;;2.00;;
43154;SDS011;34212;51.018;13.586;2024-02-21T19:25:35;4.95;;;1.90;;
43154;SDS011;34212;51.018;13.586;2024-02-21T19:30:37;3.97;;;1.83;;
43154;SDS011;34212;51.018;13.586;2024-02-21T19:35:39;4.00;;;1.60;;
43154;SDS011;34212;51.018;13.586;2024-02-21T19:40:41;3.17;;;1.40;;
43154;SDS011;34212;51.018;13.586;2024-02-21T19:45:43;4.90;;;1.63;;
43154;SDS011;34212;51.018;13.586;2024-02-21T19:50:47;4.53;;;1.73;;
43154;SDS011;34212;51.018;13.586;2024-02-21T19:55:49;7.47;;;1.98;;
43154;SDS011;34212;51.018;13.586;2024-02-21T20:00:52;3.05;;;1.60;;
43154;SDS011;34212;51.018;13.586;2024-02-21T20:05:53;4.00;;;1.52;;
43154;SDS011;34212;51.018;13.586;2024-02-21T20:10:55;2.67;;;1.42;;
43154;SDS011;34212;51.018;13.586;2024-02-21T20:15:57;5.30;;;1.50;;
43154;SDS011;34212;51.018;13.586;2024-02-21T20:20:58;7.30;;;1.90;;
43154;SDS011;34212;51.018;13.586;2024-02-21T20:26:00;1.95;;;1.05;;
43154;SDS011;34212;51.018;13.586;2024-02-21T20:31:02;8.60;;;1.30;;
43154;SDS011;34212;51.018;13.586;2024-02-21T20:36:04;11.15;;;1.88;;
43154;SDS011;34212;51.018;13.586;2024-02-21T20:41:15;2.30;;;1.17;;
43154;SDS011;34212;51.018;13.586;2024-02-21T20:46:19;4.57;;;1.30;;
43154;SDS011;34212;51.018;13.586;2024-02-21T20:51:21;3.13;;;1.00;;
43154;SDS011;34212;51.018;13.586;2024-02-21T20:56:22;3.45;;;1.27;;
43154;SDS011;34212;51.018;13.586;2024-02-21T21:01:24;4.40;;;1.20;;
43154;SDS011;34212;51.018;13.586;2024-02-21T21:06:26;3.65;;;1.30;;
43154;SDS011;34212;51.018;13.586;2024-02-21T21:11:27;2.08;;;1.10;;
43154;SDS011;34212;51.018;13.586;2024-02-21T21:16:46;3.15;;;1.23;;
43154;SDS011;34212;51.018;13.586;2024-02-21T21:21:47;3.10;;;1.40;;
43154;SDS011;34212;51.018;13.586;2024-02-21T21:26:50;3.80;;;1.30;;
43154;SDS011;34212;51.018;13.586;2024-02-21T21:36:54;4.32;;;1.67;;
43154;SDS011;34212;51.018;13.586;2024-02-21T21:41:56;1.60;;;1.10;;
43154;SDS011;34212;51.018;13.586;2024-02-21T21:46:58;3.70;;;1.40;;
43154;SDS011;34212;51.018;13.586;2024-02-21T21:52:00;3.22;;;1.30;;
43154;SDS011;34212;51.018;13.586;2024-02-21T21:57:01;5.65;;;1.73;;
43154;SDS011;34212;51.018;13.586;2024-02-21T22:02:03;6.32;;;1.55;;
43154;SDS011;34212;51.018;13.586;2024-02-21T22:07:06;3.15;;;1.33;;
43154;SDS011;34212;51.018;13.586;2024-02-21T22:12:09;1.95;;;1.02;;
43154;SDS011;34212;51.018;13.586;2024-02-21T22:17:25;2.78;;;1.30;;
43154;SDS011;34212;51.018;13.586;2024-02-21T22:22:27;2.25;;;1.23;;
43154;SDS011;34212;51.018;13.586;2024-02-21T22:27:29;1.58;;;1.15;;
43154;SDS011;34212;51.018;13.586;2024-02-21T22:32:32;2.20;;;0.95;;
43154;SDS011;34212;51.018;13.586;2024-02-21T22:37:33;5.03;;;1.40;;
43154;SDS011;34212;51.018;13.586;2024-02-21T22:42:36;2.40;;;1.27;;
43154;SDS011;34212;51.018;13.586;2024-02-21T22:47:37;3.00;;;1.20;;
43154;SDS011;34212;51.018;13.586;2024-02-21T22:52:39;3.08;;;1.20;;
43154;SDS011;34212;51.018;13.586;2024-02-21T22:57:40;2.78;;;1.08;;
43154;SDS011;34212;51.018;13.586;2024-02-21T23:02:42;1.40;;;0.90;;
43154;SDS011;34212;51.018;13.586;2024-02-21T23:07:44;1.73;;;0.90;;
43154;SDS011;34212;51.018;13.586;2024-02-21T23:12:51;2.63;;;1.50;;
43154;SDS011;34212;51.018;13.586;2024-02-21T23:17:53;1.92;;;0.95;;
43154;SDS011;34212;51.018;13.586;2024-02-21T23:22:55;1.20;;;0.80;;
43154;SDS011;34212;51.018;13.586;2024-02-21T23:27:57;1.90;;;0.90;;
43154;SDS011;34212;51.018;13.586;2024-02-21T23:32:59;1.90;;;1.23;;
43154;SDS011;34212;51.018;13.586;2024-02-21T23:38:01;1.50;;;0.90;;
43154;SDS011;34212;51.018;13.586;2024-02-21T23:43:04;1.00;;;0.88;;
43154;SDS011;34212;51.018;13.586;2024-02-21T23:48:06;4.80;;;1.20;;
43154;SDS011;34212;51.018;13.586;2024-02-21T23:53:07;1.27;;;0.80;;
43154;SDS011;34212;51.018;13.586;2024-02-21T23:58:09;1.20;;;0.90;;
